createdAt,value
2022-08-29T00:01:01.082Z,51.30
2022-08-29T00:03:32.930Z,51.77
2022-08-29T00:06:03.607Z,51.35
2022-08-29T00:08:32.818Z,51.82
2022-08-29T00:11:01.865Z,51.61
2022-08-29T00:13:36.192Z,52.18
2022-08-29T00:16:05.779Z,51.73
2022-08-29T00:18:43.891Z,52.23
2022-08-29T00:21:13.359Z,52.21
2022-08-29T00:23:42.384Z,52.37
2022-08-29T00:28:51.285Z,51.96
2022-08-29T00:31:25.582Z,52.15
2022-08-29T00:33:57.253Z,52.29
2022-08-29T00:36:27.293Z,51.67
2022-08-29T00:38:59.852Z,51.66
2022-08-29T00:41:28.945Z,51.63
2022-08-29T00:43:58.212Z,51.77
2022-08-29T00:46:56.277Z,51.67
2022-08-29T00:49:38.807Z,51.77
2022-08-29T00:52:13.470Z,51.25
2022-08-29T00:54:45.224Z,51.31
2022-08-29T00:57:21.660Z,51.46
2022-08-29T00:59:52.694Z,51.83
2022-08-29T01:02:22.389Z,51.53
2022-08-29T01:04:53.867Z,52.34
2022-08-29T01:07:28.706Z,51.79
2022-08-29T01:09:57.912Z,51.99
2022-08-29T01:12:26.649Z,51.64
2022-08-29T01:14:58.597Z,51.58
2022-08-29T01:17:29.050Z,51.15
2022-08-29T01:20:05.480Z,51.61
2022-08-29T01:22:47.063Z,51.89
2022-08-29T01:25:23.145Z,51.58
2022-08-29T01:28:00.408Z,51.36
2022-08-29T01:30:35.201Z,51.52
2022-08-29T01:33:04.428Z,51.81
2022-08-29T01:35:34.019Z,51.59
2022-08-29T01:38:09.146Z,51.49
2022-08-29T01:40:40.799Z,52.33
2022-08-29T01:43:09.695Z,51.69
2022-08-29T01:48:14.526Z,51.96
2022-08-29T01:50:44.042Z,51.38
2022-08-29T01:55:50.208Z,51.93
2022-08-29T01:58:19.669Z,52.30
2022-08-29T02:00:49.157Z,52.01
2022-08-29T02:03:18.685Z,51.64
2022-08-29T02:05:48.603Z,51.59
2022-08-29T02:08:20.370Z,51.74
2022-08-29T02:10:51.929Z,51.46
2022-08-29T02:13:21.127Z,51.78
2022-08-29T02:15:50.263Z,52.30
2022-08-29T02:18:20.229Z,51.64
2022-08-29T02:20:50.326Z,51.96
2022-08-29T02:23:30.507Z,52.13
2022-08-29T02:26:02.502Z,52.46
2022-08-29T02:28:32.013Z,52.67
2022-08-29T02:31:01.517Z,52.13
2022-08-29T02:33:36.232Z,52.15
2022-08-29T02:36:08.387Z,51.96
2022-08-29T02:38:38.146Z,51.63
2022-08-29T02:41:14.050Z,52.00
2022-08-29T02:43:49.588Z,52.04
2022-08-29T02:46:20.470Z,51.74
2022-08-29T02:48:58.237Z,52.33
2022-08-29T02:51:32.568Z,52.48
2022-08-29T02:54:02.914Z,52.17
2022-08-29T02:56:33.928Z,52.39
2022-08-29T02:59:03.026Z,51.99
2022-08-29T03:01:33.022Z,51.78
2022-08-29T03:04:08.987Z,51.28
2022-08-29T03:06:38.175Z,51.64
2022-08-29T03:09:08.156Z,51.38
2022-08-29T03:11:39.463Z,51.61
2022-08-29T03:14:08.802Z,51.76
2022-08-29T03:16:38.663Z,51.78
2022-08-29T03:19:07.834Z,51.70
2022-08-29T03:21:37.064Z,51.78
2022-08-29T03:24:06.319Z,51.96
2022-08-29T03:26:42.522Z,51.76
2022-08-29T03:29:16.630Z,51.99
2022-08-29T03:31:46.657Z,52.25
2022-08-29T03:34:16.270Z,52.17
2022-08-29T03:36:45.484Z,52.46
2022-08-29T03:39:14.601Z,52.41
2022-08-29T03:41:50.732Z,52.40
2022-08-29T03:44:21.768Z,52.28
2022-08-29T03:46:51.058Z,52.62
2022-08-29T03:49:20.190Z,52.92
2022-08-29T03:51:49.623Z,52.76
2022-08-29T03:54:18.726Z,53.22
2022-08-29T03:56:48.231Z,52.50
2022-08-29T03:59:20.323Z,52.29
2022-08-29T04:01:49.751Z,52.48
2022-08-29T04:04:32.782Z,52.28
2022-08-29T04:07:08.461Z,51.91
2022-08-29T04:09:39.275Z,51.96
2022-08-29T04:12:10.933Z,51.88
2022-08-29T04:14:48.144Z,51.31
2022-08-29T04:17:17.271Z,51.53
2022-08-29T04:19:48.948Z,52.28
2022-08-29T04:22:19.439Z,51.83
2022-08-29T04:24:48.545Z,51.57
2022-08-29T04:27:17.620Z,51.52
2022-08-29T04:29:49.810Z,51.38
2022-08-29T04:32:19.524Z,51.06
2022-08-29T04:34:48.694Z,50.63
2022-08-29T04:39:58.489Z,49.85
2022-08-29T04:42:28.273Z,49.82
2022-08-29T04:44:59.573Z,49.62
2022-08-29T04:47:28.843Z,50.52
2022-08-29T04:49:58.586Z,51.15
2022-08-29T04:52:29.165Z,51.01
2022-08-29T04:54:59.065Z,51.09
2022-08-29T04:57:29.146Z,51.13
2022-08-29T05:00:01.080Z,51.16
2022-08-29T05:02:30.390Z,51.31
2022-08-29T05:04:59.482Z,50.87
2022-08-29T05:07:28.978Z,50.26
2022-08-29T05:10:00.569Z,50.06
2022-08-29T05:12:36.164Z,50.06
2022-08-29T05:15:08.852Z,49.81
2022-08-29T05:17:43.625Z,49.58
2022-08-29T05:20:17.793Z,49.83
2022-08-29T05:22:46.989Z,49.02
2022-08-29T05:25:18.475Z,48.45
2022-08-29T05:27:48.132Z,48.35
2022-08-29T05:30:35.214Z,48.49
2022-08-29T05:33:05.300Z,47.80
2022-08-29T05:35:34.734Z,47.57
2022-08-29T05:38:09.186Z,47.84
2022-08-29T05:40:39.415Z,47.50
2022-08-29T05:43:09.710Z,46.68
2022-08-29T05:45:46.003Z,46.23
2022-08-29T05:48:16.939Z,45.65
2022-08-29T05:50:46.490Z,44.49
2022-08-29T05:53:18.886Z,44.10
2022-08-29T05:55:48.149Z,43.01
2022-08-29T05:58:17.932Z,42.80
2022-08-29T06:00:50.556Z,42.77
2022-08-29T06:03:20.520Z,42.76
2022-08-29T06:05:53.446Z,42.34
2022-08-29T06:08:22.925Z,42.43
2022-08-29T06:10:52.069Z,42.24
2022-08-29T06:13:21.487Z,42.14
2022-08-29T06:15:53.074Z,41.63
2022-08-29T06:18:34.337Z,42.11
2022-08-29T06:21:06.671Z,41.76
2022-08-29T06:23:42.631Z,42.04
2022-08-29T06:26:13.678Z,41.76
2022-08-29T06:28:45.493Z,41.49
2022-08-29T06:31:20.298Z,41.32
2022-08-29T06:33:51.880Z,41.32
2022-08-29T06:36:20.746Z,41.22
2022-08-29T06:38:50.363Z,41.13
2022-08-29T06:41:20.283Z,40.92
2022-08-29T06:43:50.876Z,41.16
2022-08-29T06:46:29.774Z,41.31
2022-08-29T06:49:00.461Z,41.10
2022-08-29T06:51:37.659Z,40.80
2022-08-29T06:54:13.716Z,40.93
2022-08-29T06:56:46.083Z,40.62
2022-08-29T06:59:15.434Z,39.36
2022-08-29T07:01:47.553Z,39.29
2022-08-29T07:04:20.619Z,38.79
2022-08-29T07:06:51.016Z,38.67
2022-08-29T07:09:20.273Z,37.90
2022-08-29T07:11:49.404Z,37.33
2022-08-29T07:14:18.477Z,36.61
2022-08-29T07:16:49.750Z,36.74
2022-08-29T07:19:24.061Z,36.51
2022-08-29T07:21:53.934Z,36.37
2022-08-29T07:24:27.509Z,36.23
2022-08-29T07:26:58.797Z,35.84
2022-08-29T07:29:27.496Z,35.91
2022-08-29T07:31:58.453Z,35.55
2022-08-29T07:34:27.851Z,35.86
2022-08-29T07:36:56.949Z,35.43
2022-08-29T07:39:26.434Z,35.30
2022-08-29T07:41:55.639Z,35.17
2022-08-29T07:44:24.766Z,35.45
2022-08-29T07:47:07.210Z,35.25
2022-08-29T07:49:41.493Z,35.36
2022-08-29T07:52:12.002Z,35.09
2022-08-29T07:54:41.160Z,34.75
2022-08-29T07:57:10.202Z,35.18
2022-08-29T07:59:41.595Z,35.42
2022-08-29T08:02:13.291Z,35.17
2022-08-29T08:04:42.665Z,35.24
2022-08-29T08:07:16.712Z,35.73
2022-08-29T08:09:46.804Z,35.62
2022-08-29T08:12:22.667Z,35.61
2022-08-29T08:14:51.907Z,36.00
2022-08-29T08:17:23.025Z,36.07
2022-08-29T08:19:53.111Z,35.67
2022-08-29T08:22:22.230Z,35.67
2022-08-29T08:24:51.440Z,35.84
2022-08-29T08:27:20.739Z,36.92
2022-08-29T08:29:49.778Z,36.75
2022-08-29T08:32:18.867Z,37.47
2022-08-29T08:34:50.125Z,37.38
2022-08-29T08:37:28.019Z,37.62
2022-08-29T08:40:04.460Z,37.88
2022-08-29T08:42:42.324Z,37.20
2022-08-29T08:45:13.597Z,37.19
2022-08-29T08:47:47.061Z,37.01
2022-08-29T08:50:30.843Z,37.12
2022-08-29T08:53:07.536Z,37.83
2022-08-29T08:55:42.853Z,37.76
2022-08-29T08:58:28.962Z,38.08
2022-08-29T09:01:03.103Z,38.65
2022-08-29T09:04:05.123Z,38.70
2022-08-29T09:06:55.148Z,39.45
2022-08-29T09:09:35.475Z,40.12
2022-08-29T09:12:17.825Z,40.09
2022-08-29T09:14:59.773Z,40.40
2022-08-29T09:17:36.705Z,39.78
2022-08-29T09:20:10.371Z,40.26
2022-08-29T09:22:44.318Z,39.84
2022-08-29T09:25:14.885Z,39.64
2022-08-29T09:27:49.964Z,39.16
2022-08-29T09:30:26.207Z,38.86
2022-08-29T09:33:00.322Z,38.62
2022-08-29T09:35:36.670Z,37.98
2022-08-29T09:38:14.517Z,37.57
2022-08-29T09:40:54.266Z,36.80
2022-08-29T09:43:28.624Z,35.80
2022-08-29T09:46:18.364Z,35.50
2022-08-29T09:48:49.798Z,34.98
2022-08-29T09:51:29.804Z,34.91
2022-08-29T09:54:23.012Z,34.83
2022-08-29T09:56:56.217Z,35.66
2022-08-29T09:59:33.485Z,36.23
2022-08-29T10:02:20.654Z,36.46
2022-08-29T10:04:57.876Z,37.08
2022-08-29T10:07:29.465Z,37.50
2022-08-29T10:10:03.579Z,37.92
2022-08-29T10:12:49.083Z,37.83
2022-08-29T10:15:46.581Z,37.45
2022-08-29T10:18:34.039Z,37.20
2022-08-29T10:21:14.345Z,37.18
2022-08-29T10:24:15.938Z,36.97
2022-08-29T10:27:02.749Z,36.86
2022-08-29T10:29:48.597Z,37.22
2022-08-29T10:32:35.670Z,37.68
2022-08-29T10:35:13.403Z,37.22
2022-08-29T10:37:56.626Z,36.77
2022-08-29T10:40:30.720Z,36.19
2022-08-29T10:43:25.883Z,35.54
2022-08-29T10:46:20.270Z,36.48
2022-08-29T10:48:59.927Z,36.87
2022-08-29T10:51:40.298Z,37.03
2022-08-29T10:54:20.844Z,36.54
2022-08-29T10:56:50.924Z,36.89
2022-08-29T10:59:34.199Z,36.66
2022-08-29T11:02:10.771Z,36.53
2022-08-29T11:04:50.575Z,35.97
2022-08-29T11:07:25.506Z,36.63
2022-08-29T11:09:58.481Z,37.25
2022-08-29T11:12:36.034Z,38.09
2022-08-29T11:15:15.934Z,37.97
2022-08-29T11:17:57.372Z,37.73
2022-08-29T11:20:28.908Z,37.41
2022-08-29T11:23:03.150Z,37.35
2022-08-29T11:25:46.592Z,37.47
2022-08-29T11:28:26.607Z,38.02
2022-08-29T11:31:11.741Z,37.67
2022-08-29T11:33:49.087Z,37.65
2022-08-29T11:36:32.398Z,38.00
2022-08-29T11:39:31.663Z,37.77
2022-08-29T11:42:08.033Z,37.94
2022-08-29T11:44:40.802Z,37.94
2022-08-29T11:47:41.163Z,38.15
2022-08-29T11:50:24.133Z,38.75
2022-08-29T11:52:57.137Z,39.94
2022-08-29T11:55:35.349Z,40.19
2022-08-29T11:58:46.372Z,40.82
2022-08-29T12:01:50.406Z,40.80
2022-08-29T12:04:56.789Z,41.53
2022-08-29T12:07:37.160Z,42.02
2022-08-29T12:10:09.603Z,42.09
2022-08-29T12:12:43.469Z,42.10
2022-08-29T12:15:54.394Z,41.30
2022-08-29T12:18:46.823Z,42.32
2022-08-29T12:21:46.767Z,42.64
2022-08-29T12:24:57.264Z,42.54
2022-08-29T12:27:59.323Z,42.88
2022-08-29T12:30:28.837Z,43.43
2022-08-29T12:33:10.184Z,43.13
2022-08-29T12:36:10.523Z,43.18
2022-08-29T12:38:55.797Z,43.23
2022-08-29T12:41:46.281Z,43.78
2022-08-29T12:44:17.858Z,43.46
2022-08-29T12:46:52.190Z,43.16
2022-08-29T12:49:25.035Z,43.17
2022-08-29T12:57:25.953Z,43.54
2022-08-29T12:59:58.784Z,43.97
2022-08-29T13:02:32.250Z,43.17
2022-08-29T13:05:02.295Z,43.87
2022-08-29T13:10:20.167Z,44.09
2022-08-29T13:12:51.666Z,44.31
2022-08-29T13:15:28.667Z,44.12
2022-08-29T13:18:01.605Z,43.64
2022-08-29T13:20:48.793Z,43.56
2022-08-29T13:23:27.471Z,43.43
2022-08-29T13:26:00.834Z,44.15
2022-08-29T13:28:37.920Z,45.34
2022-08-29T13:31:26.492Z,45.82
2022-08-29T13:34:26.031Z,45.64
2022-08-29T13:37:02.059Z,46.57
2022-08-29T13:39:45.432Z,46.99
2022-08-29T13:42:27.077Z,47.58
2022-08-29T13:45:25.873Z,47.38
2022-08-29T13:48:15.029Z,47.74
2022-08-29T13:50:49.643Z,47.85
2022-08-29T13:53:18.858Z,47.69
2022-08-29T13:55:48.063Z,47.82
2022-08-29T13:58:20.734Z,47.82
2022-08-29T14:00:53.443Z,48.52
2022-08-29T14:03:23.443Z,49.07
2022-08-29T14:05:55.899Z,48.81
2022-08-29T14:08:26.235Z,49.12
2022-08-29T14:11:00.383Z,48.78
2022-08-29T14:16:08.107Z,48.38
2022-08-29T14:18:37.589Z,48.36
2022-08-29T14:21:06.761Z,48.52
2022-08-29T14:23:36.368Z,48.00
2022-08-29T14:26:06.604Z,48.40
2022-08-29T14:28:43.876Z,48.33
2022-08-29T14:31:18.768Z,48.14
2022-08-29T14:33:52.997Z,48.17
2022-08-29T14:36:25.634Z,48.32
2022-08-29T14:39:04.165Z,48.10
2022-08-29T14:41:33.278Z,48.86
2022-08-29T14:44:02.711Z,48.85
2022-08-29T14:46:34.002Z,48.65
2022-08-29T14:49:04.255Z,49.25
2022-08-29T14:51:33.562Z,49.37
2022-08-29T14:54:03.099Z,49.63
2022-08-29T14:56:48.111Z,49.41
2022-08-29T14:59:18.635Z,49.73
2022-08-29T15:01:54.552Z,49.73
2022-08-29T15:04:35.457Z,49.87
2022-08-29T15:07:09.920Z,49.99
2022-08-29T15:09:41.335Z,49.87
2022-08-29T15:12:10.208Z,49.79
2022-08-29T15:14:42.067Z,50.58
2022-08-29T15:17:14.446Z,51.09
2022-08-29T15:22:37.958Z,51.28
2022-08-29T15:25:08.534Z,51.51
2022-08-29T15:27:37.669Z,51.94
2022-08-29T15:30:07.909Z,51.75
2022-08-29T15:32:40.355Z,52.14
2022-08-29T15:35:14.169Z,52.64
2022-08-29T15:37:44.716Z,52.79
2022-08-29T15:40:14.541Z,53.33
2022-08-29T15:42:50.034Z,53.42
2022-08-29T15:45:19.157Z,53.81
2022-08-29T15:47:54.385Z,54.25
2022-08-29T15:50:24.660Z,54.00
2022-08-29T15:52:54.178Z,54.47
2022-08-29T15:55:25.043Z,53.70
2022-08-29T15:57:54.308Z,54.63
2022-08-29T16:00:30.639Z,55.51
2022-08-29T16:03:10.390Z,56.11
2022-08-29T16:05:40.631Z,56.67
2022-08-29T16:08:10.593Z,57.30
2022-08-29T16:10:46.064Z,57.45
2022-08-29T16:13:15.266Z,57.83
2022-08-29T16:15:44.495Z,58.41
2022-08-29T16:18:15.600Z,58.83
2022-08-29T16:20:44.871Z,59.05
2022-08-29T16:23:15.580Z,59.44
2022-08-29T16:25:49.897Z,60.12
2022-08-29T16:28:19.298Z,59.91
2022-08-29T16:30:52.721Z,60.51
2022-08-29T16:33:29.594Z,60.66
2022-08-29T16:36:00.284Z,60.45
2022-08-29T16:38:32.898Z,60.56
2022-08-29T16:41:08.209Z,61.29
2022-08-29T16:43:39.185Z,61.41
2022-08-29T16:46:09.331Z,61.30
2022-08-29T16:48:41.147Z,61.38
2022-08-29T16:51:10.869Z,61.28
2022-08-29T16:53:40.905Z,61.13
2022-08-29T16:56:13.737Z,61.16
2022-08-29T16:58:56.660Z,61.50
2022-08-29T17:01:25.942Z,61.51
2022-08-29T17:03:57.276Z,61.84
2022-08-29T17:06:26.494Z,62.01
2022-08-29T17:11:27.319Z,62.42
2022-08-29T17:13:55.049Z,62.72
2022-08-29T17:16:23.864Z,63.28
2022-08-29T17:18:53.327Z,62.88
2022-08-29T17:21:30.010Z,63.42
2022-08-29T17:23:59.720Z,63.14
2022-08-29T17:26:34.633Z,63.49
2022-08-29T17:29:09.137Z,63.55
2022-08-29T17:31:41.249Z,63.92
2022-08-29T17:34:16.746Z,64.31
2022-08-29T17:36:49.191Z,64.28
2022-08-29T17:39:20.036Z,63.89
2022-08-29T17:41:52.299Z,63.37
2022-08-29T17:44:22.043Z,63.27
2022-08-29T17:46:56.608Z,63.21
2022-08-29T17:49:27.082Z,63.12
2022-08-29T17:51:58.873Z,63.19
2022-08-29T17:54:28.417Z,63.12
2022-08-29T17:56:59.592Z,63.33
2022-08-29T17:59:35.740Z,63.72
2022-08-29T18:02:05.750Z,64.06
2022-08-29T18:04:34.965Z,64.26
2022-08-29T18:07:06.413Z,64.42
2022-08-29T18:09:35.977Z,64.34
2022-08-29T18:12:05.705Z,64.78
2022-08-29T18:14:34.935Z,65.27
2022-08-29T18:17:04.211Z,65.55
2022-08-29T18:19:33.742Z,65.88
2022-08-29T18:22:02.981Z,65.82
2022-08-29T18:24:39.443Z,66.41
2022-08-29T18:27:08.736Z,66.11
2022-08-29T18:29:38.061Z,66.54
2022-08-29T18:34:47.693Z,67.33
2022-08-29T18:37:17.660Z,67.71
2022-08-29T18:39:48.956Z,68.55
2022-08-29T18:42:37.152Z,68.52
2022-08-29T18:45:10.081Z,68.53
2022-08-29T18:47:39.622Z,68.70
2022-08-29T18:50:25.103Z,69.58
2022-08-29T18:52:55.044Z,69.43
2022-08-29T18:55:28.521Z,70.32
2022-08-29T18:57:58.308Z,69.68
2022-08-29T19:00:28.472Z,70.25
2022-08-29T19:05:42.222Z,70.80
2022-08-29T19:08:11.711Z,71.11
2022-08-29T19:10:42.975Z,71.23
2022-08-29T19:13:12.253Z,71.35
2022-08-29T19:15:48.071Z,71.38
2022-08-29T19:18:18.744Z,71.96
2022-08-29T19:21:01.189Z,72.06
2022-08-29T19:23:32.289Z,72.01
2022-08-29T19:26:07.608Z,72.20
2022-08-29T19:28:37.026Z,71.93
2022-08-29T19:31:06.497Z,72.09
2022-08-29T19:33:36.713Z,72.11
2022-08-29T19:36:13.932Z,72.79
2022-08-29T19:38:43.796Z,72.95
2022-08-29T19:41:17.125Z,73.22
2022-08-29T19:43:46.423Z,72.67
2022-08-29T19:46:18.364Z,73.76
2022-08-29T19:48:50.864Z,73.56
2022-08-29T19:51:24.742Z,73.54
2022-08-29T19:53:56.256Z,73.72
2022-08-29T19:56:28.781Z,74.41
2022-08-29T19:58:59.135Z,74.65
2022-08-29T20:01:29.040Z,75.37
2022-08-29T20:03:58.211Z,75.42
2022-08-29T20:06:27.732Z,75.85
2022-08-29T20:08:58.272Z,75.73
2022-08-29T20:11:30.560Z,76.22
2022-08-29T20:14:07.315Z,75.70
2022-08-29T20:16:41.336Z,75.08
2022-08-29T20:19:11.117Z,75.07
2022-08-29T20:21:40.642Z,74.90
2022-08-29T20:24:15.472Z,75.17
2022-08-29T20:26:49.374Z,76.25
2022-08-29T20:29:26.752Z,76.32
2022-08-29T20:31:57.330Z,76.71
2022-08-29T20:34:30.064Z,76.45
2022-08-29T20:37:09.953Z,76.82
2022-08-29T20:39:46.431Z,76.98
2022-08-29T20:42:21.477Z,77.75
2022-08-29T20:44:50.858Z,77.85
2022-08-29T20:47:22.232Z,78.66
2022-08-29T20:49:52.140Z,78.43
2022-08-29T20:52:21.660Z,78.42
2022-08-29T20:54:51.320Z,79.13
2022-08-29T20:57:22.425Z,79.37
2022-08-29T20:59:53.624Z,78.67
2022-08-29T21:02:28.081Z,78.94
2022-08-29T21:05:16.105Z,78.82
2022-08-29T21:07:47.132Z,78.44
2022-08-29T21:10:17.104Z,78.61
2022-08-29T21:12:48.285Z,79.07
2022-08-29T21:15:17.634Z,78.61
2022-08-29T21:17:46.876Z,78.36
2022-08-29T21:20:16.331Z,78.08
2022-08-29T21:22:45.640Z,78.27
2022-08-29T21:25:20.238Z,78.11
2022-08-29T21:27:51.476Z,78.00
2022-08-29T21:32:56.540Z,77.84
2022-08-29T21:35:25.696Z,77.32
2022-08-29T21:37:55.011Z,77.69
2022-08-29T21:40:25.471Z,77.62
2022-08-29T21:42:56.772Z,78.15
2022-08-29T21:45:25.915Z,78.12
2022-08-29T21:47:57.365Z,78.38
2022-08-29T21:50:27.174Z,77.10
2022-08-29T21:52:56.550Z,78.11
2022-08-29T21:55:26.429Z,78.80
2022-08-29T21:57:59.283Z,79.72
2022-08-29T22:00:32.115Z,80.29
2022-08-29T22:03:02.951Z,80.47
2022-08-29T22:05:40.761Z,80.30
2022-08-29T22:08:13.228Z,80.31
2022-08-29T22:10:44.741Z,80.52
2022-08-29T22:13:16.284Z,80.60
2022-08-29T22:16:10.173Z,80.42
2022-08-29T22:18:39.364Z,80.38
2022-08-29T22:21:13.379Z,80.59
2022-08-29T22:26:19.376Z,80.95
2022-08-29T22:28:50.815Z,81.55
2022-08-29T22:31:20.655Z,81.08
2022-08-29T22:33:50.803Z,81.26
2022-08-29T22:36:22.899Z,81.14
2022-08-29T22:38:56.666Z,81.49
2022-08-29T22:41:32.165Z,81.77
2022-08-29T22:44:42.398Z,82.63
2022-08-29T22:46:53.592Z,82.00
2022-08-29T22:49:25.538Z,82.55
2022-08-29T22:52:02.640Z,82.92
2022-08-29T22:54:41.422Z,82.58
2022-08-29T22:57:13.583Z,83.35
2022-08-29T22:59:45.793Z,83.62
2022-08-29T23:02:15.554Z,83.84
2022-08-29T23:04:47.108Z,84.31
2022-08-29T23:07:17.078Z,83.99
2022-08-29T23:09:46.390Z,84.13
2022-08-29T23:12:17.099Z,84.35
2022-08-29T23:14:48.512Z,84.62
2022-08-29T23:17:19.568Z,84.34
2022-08-29T23:19:49.949Z,84.67
2022-08-29T23:22:25.578Z,84.73
2022-08-29T23:24:58.838Z,84.75
2022-08-29T23:27:29.275Z,85.03
2022-08-29T23:30:13.944Z,86.22
2022-08-29T23:32:46.996Z,85.67
2022-08-29T23:35:16.269Z,85.26
2022-08-29T23:37:46.872Z,85.46
2022-08-29T23:40:16.259Z,85.89
2022-08-29T23:42:50.650Z,87.18
2022-08-29T23:45:22.012Z,87.08
2022-08-29T23:47:52.018Z,86.93
2022-08-29T23:50:21.377Z,86.85
2022-08-29T23:52:50.579Z,87.56
2022-08-29T23:55:25.038Z,87.22
2022-08-29T23:58:04.633Z,88.08
